Time;durP1;ratioP1;P1;durP2;ratioP2;P2;SDS_P1;SDS_P2;PMS_P1;PMS_P2;Temp;Humidity;BMP_temperature;BMP_pressure;BME280_temperature;BME280_humidity;BME280_pressure;Samples;Min_cycle;Max_cycle;Signal;HPM_P1;HPM_P2
2022/04/29 00:00:49;;;;;;;16.50;9.90;;;19.70;44.10;;;;;;5019444;28;20212;-73
2022/04/29 00:03:16;;;;;;;13.20;9.15;;;19.70;44.20;;;;;;5019191;28;20238;-73
2022/04/29 00:05:44;;;;;;;13.68;8.52;;;19.70;44.90;;;;;;5019059;28;20214;-73
2022/04/29 00:08:11;;;;;;;13.60;9.00;;;19.70;44.20;;;;;;5019932;28;20211;-73
2022/04/29 00:10:39;;;;;;;12.52;9.25;;;19.60;44.30;;;;;;5019227;28;20273;-74
2022/04/29 00:13:08;;;;;;;12.52;8.70;;;19.60;44.20;;;;;;5019767;28;20239;-73
2022/04/29 00:15:35;;;;;;;12.75;8.80;;;19.60;44.30;;;;;;5019236;28;20219;-73
2022/04/29 00:18:02;;;;;;;12.73;8.55;;;19.60;44.30;;;;;;5035706;28;20684;-73
2022/04/29 00:20:29;;;;;;;12.63;8.23;;;19.60;44.20;;;;;;5018920;28;20303;-73
2022/04/29 00:22:56;;;;;;;11.23;8.13;;;19.50;44.20;;;;;;5035296;28;20219;-73
2022/04/29 00:25:23;;;;;;;10.00;7.93;;;19.50;44.30;;;;;;5018866;28;20204;-73
2022/04/29 00:27:51;;;;;;;9.82;7.50;;;19.50;44.40;;;;;;5018565;28;20196;-73
2022/04/29 00:32:52;;;;;;;10.38;8.05;;;19.50;44.40;;;;;;4999550;23;20229;-68
2022/04/29 00:35:19;;;;;;;10.38;7.88;;;19.40;44.30;;;;;;4995274;28;20654;-69
2022/04/29 00:37:47;;;;;;;10.98;7.72;;;19.50;44.40;;;;;;4996738;28;20189;-68
2022/04/29 00:40:15;;;;;;;8.95;6.53;;;19.40;44.40;;;;;;4995586;28;20205;-67
2022/04/29 00:42:43;;;;;;;10.32;7.70;;;19.40;44.40;;;;;;5025636;28;20251;-67
2022/04/29 00:45:11;;;;;;;9.68;6.93;;;19.40;44.40;;;;;;5031318;28;20661;-68
2022/04/29 00:47:38;;;;;;;9.30;6.88;;;19.40;44.40;;;;;;5016264;28;20189;-67
2022/04/29 00:50:07;;;;;;;11.85;7.05;;;19.40;44.40;;;;;;5014772;28;20595;-67
2022/04/29 00:52:35;;;;;;;10.10;6.70;;;19.40;44.50;;;;;;5014624;28;20219;-67
2022/04/29 00:55:03;;;;;;;10.13;6.82;;;19.30;44.40;;;;;;5015765;28;20216;-68
2022/04/29 00:57:40;;;;;;;9.48;7.05;;;19.30;44.50;;;;;;5016095;28;20181;-68
2022/04/29 01:00:09;;;;;;;8.65;6.80;;;19.30;44.40;;;;;;5014541;28;20188;-67
2022/04/29 01:02:38;;;;;;;8.38;6.47;;;19.30;44.50;;;;;;5015794;28;20582;-67
2022/04/29 01:05:07;;;;;;;7.43;6.25;;;19.30;44.60;;;;;;5014508;28;20612;-67
2022/04/29 01:07:35;;;;;;;8.35;7.10;;;19.20;44.40;;;;;;5014742;28;20196;-67
2022/04/29 01:10:02;;;;;;;7.82;6.68;;;19.30;44.40;;;;;;5014268;28;20583;-67
2022/04/29 01:16:17;;;;;;;7.70;6.30;;;19.20;44.60;;;;;;5016675;28;20760;-67
2022/04/29 01:18:45;;;;;;;7.97;6.70;;;19.20;44.50;;;;;;5014390;28;20193;-67
2022/04/29 01:21:14;;;;;;;8.05;6.20;;;19.20;44.60;;;;;;5030555;28;20200;-67
2022/04/29 01:23:43;;;;;;;7.50;6.28;;;19.20;44.60;;;;;;5030605;28;20200;-67
2022/04/29 01:26:15;;;;;;;7.45;6.15;;;19.10;44.50;;;;;;5030501;28;20578;-67
2022/04/29 01:28:47;;;;;;;8.35;5.95;;;19.10;44.40;;;;;;5030986;28;20199;-67
2022/04/29 01:31:15;;;;;;;7.30;6.28;;;19.10;44.50;;;;;;5013644;28;20307;-67
2022/04/29 01:33:43;;;;;;;8.18;6.00;;;19.10;44.60;;;;;;5014197;28;20204;-67
2022/04/29 01:36:11;;;;;;;6.72;5.68;;;19.10;44.40;;;;;;5013731;28;20197;-67
2022/04/29 01:38:38;;;;;;;7.47;6.00;;;19.00;44.40;;;;;;5015280;28;20200;-69
2022/04/29 01:41:08;;;;;;;8.57;6.05;;;19.10;44.60;;;;;;5030169;28;20196;-67
2022/04/29 01:43:39;;;;;;;6.93;5.72;;;19.10;44.80;;;;;;5030273;28;20211;-68
2022/04/29 01:46:08;;;;;;;7.20;5.47;;;19.10;45.30;;;;;;5030541;28;20197;-67
2022/04/29 01:48:54;;;;;;;6.82;5.97;;;19.00;45.20;;;;;;5015028;28;20180;-67
2022/04/29 01:51:32;;;;;;;6.95;5.95;;;19.00;44.70;;;;;;5013713;28;20591;-67
2022/04/29 01:53:59;;;;;;;6.40;5.78;;;19.00;44.70;;;;;;5013635;28;20192;-67
2022/04/29 01:56:33;;;;;;;5.75;5.20;;;19.00;44.90;;;;;;5030020;28;20216;-67
2022/04/29 01:59:03;;;;;;;6.05;5.47;;;18.90;44.70;;;;;;5030840;28;20185;-67
2022/04/29 02:01:33;;;;;;;6.10;5.30;;;19.00;44.80;;;;;;5013624;28;20224;-67
2022/04/29 02:04:01;;;;;;;6.82;5.63;;;18.90;44.60;;;;;;5029829;28;20201;-68
2022/04/29 02:06:28;;;;;;;6.70;5.50;;;18.90;44.80;;;;;;5030359;28;20224;-68
2022/04/29 02:08:56;;;;;;;5.75;5.03;;;18.90;44.70;;;;;;5014444;28;20597;-67
2022/04/29 02:11:23;;;;;;;7.32;5.35;;;18.90;44.90;;;;;;5029102;28;20244;-67
2022/04/29 02:14:18;;;;;;;6.03;5.40;;;18.90;44.80;;;;;;5013552;28;20224;-67
2022/04/29 02:17:01;;;;;;;6.43;5.40;;;18.80;44.80;;;;;;5013219;28;20265;-69
2022/04/29 02:19:29;;;;;;;5.57;5.07;;;18.90;44.80;;;;;;5030384;28;20200;-71
2022/04/29 02:21:57;;;;;;;5.82;4.70;;;18.80;44.80;;;;;;5029525;28;20311;-71
2022/04/29 02:24:24;;;;;;;6.10;5.18;;;18.90;44.90;;;;;;5012976;28;20224;-71
2022/04/29 02:26:51;;;;;;;5.57;4.95;;;18.80;44.80;;;;;;5014647;28;20654;-73
2022/04/29 02:29:19;;;;;;;6.07;5.10;;;18.80;44.70;;;;;;5012886;28;20670;-71
2022/04/29 02:31:46;;;;;;;6.97;5.63;;;18.80;44.80;;;;;;5029276;28;20673;-72
2022/04/29 02:34:14;;;;;;;7.15;5.35;;;18.80;44.80;;;;;;5029444;28;20196;-71
2022/04/29 02:36:41;;;;;;;5.80;5.20;;;18.70;44.80;;;;;;5029352;28;20205;-71
2022/04/29 02:39:08;;;;;;;6.70;5.03;;;18.70;44.80;;;;;;5030290;28;20661;-71
2022/04/29 02:41:36;;;;;;;4.95;4.55;;;18.70;44.80;;;;;;5030972;28;20204;-71
2022/04/29 02:44:05;;;;;;;5.50;4.90;;;18.70;45.40;;;;;;5031403;28;20224;-71
2022/04/29 02:46:33;;;;;;;5.55;5.05;;;18.70;44.80;;;;;;5015639;28;20197;-73
2022/04/29 02:49:00;;;;;;;5.55;4.85;;;18.70;44.80;;;;;;5048916;28;20201;-71
2022/04/29 02:51:27;;;;;;;5.40;4.90;;;18.70;44.80;;;;;;5050428;28;20238;-71
2022/04/29 02:53:54;;;;;;;5.32;4.82;;;18.70;45.30;;;;;;5046685;28;20196;-71
2022/04/29 02:56:21;;;;;;;5.60;4.70;;;18.70;44.80;;;;;;5024497;28;20197;-71
2022/04/29 02:59:14;;;;;;;5.72;5.13;;;18.70;44.80;;;;;;5012581;28;20193;-71
2022/04/29 03:01:43;;;;;;;5.40;4.90;;;18.70;44.80;;;;;;5013743;28;20209;-71
2022/04/29 03:04:10;;;;;;;5.63;5.13;;;18.70;44.80;;;;;;5029172;28;20319;-71
2022/04/29 03:06:38;;;;;;;5.55;4.95;;;18.60;44.70;;;;;;5013786;28;20195;-72
2022/04/29 03:09:05;;;;;;;5.13;4.63;;;18.60;44.70;;;;;;5029428;28;20193;-71
2022/04/29 03:11:33;;;;;;;4.90;4.40;;;18.60;44.70;;;;;;5012811;28;20298;-71
2022/04/29 03:14:00;;;;;;;5.47;4.97;;;18.60;45.30;;;;;;5040048;28;20220;-72
2022/04/29 03:16:27;;;;;;;5.40;4.90;;;18.60;44.70;;;;;;5029149;28;20201;-71
2022/04/29 03:18:58;;;;;;;4.75;4.35;;;18.60;44.70;;;;;;5012402;28;20199;-71
2022/04/29 03:21:26;;;;;;;4.72;4.32;;;18.60;44.70;;;;;;5028764;28;20307;-71
2022/04/29 03:23:53;;;;;;;5.28;4.78;;;18.60;44.80;;;;;;5029879;28;20666;-72
2022/04/29 03:26:20;;;;;;;5.40;4.90;;;18.60;44.90;;;;;;5032834;28;20673;-71
2022/04/29 03:28:48;;;;;;;5.05;4.55;;;18.50;44.70;;;;;;5032810;28;20201;-71
2022/04/29 03:31:15;;;;;;;4.40;4.00;;;18.50;44.60;;;;;;5016180;28;20225;-72
2022/04/29 03:34:10;;;;;;;4.45;4.05;;;18.50;44.60;;;;;;5032910;28;20197;-71
2022/04/29 03:36:38;;;;;;;4.95;4.55;;;18.60;44.70;;;;;;5016118;28;20196;-71
2022/04/29 03:39:05;;;;;;;4.57;4.15;;;18.60;44.80;;;;;;5032601;28;20197;-71
2022/04/29 03:41:33;;;;;;;4.82;4.25;;;18.60;44.70;;;;;;5032522;28;20216;-71
2022/04/29 03:44:03;;;;;;;4.82;4.35;;;18.60;44.70;;;;;;5016076;28;20220;-71
2022/04/29 03:46:34;;;;;;;4.93;4.30;;;18.60;44.70;;;;;;5017158;28;20189;-71
2022/04/29 03:52:03;;;;;;;4.80;4.30;;;18.60;44.70;;;;;;5016950;28;20220;-71
2022/04/29 03:54:31;;;;;;;4.90;4.50;;;18.60;44.70;;;;;;5016538;28;20193;-71
2022/04/29 03:57:00;;;;;;;4.68;4.28;;;18.60;44.70;;;;;;5032381;28;20279;-71
2022/04/29 03:59:30;;;;;;;5.20;4.20;;;18.60;44.70;;;;;;5032491;28;20546;-71
2022/04/29 04:01:57;;;;;;;5.03;4.50;;;18.60;44.70;;;;;;5032383;28;20728;-71
2022/04/29 04:04:24;;;;;;;4.68;4.28;;;18.60;44.70;;;;;;5032099;28;20247;-71
2022/04/29 04:06:53;;;;;;;5.15;4.30;;;18.60;44.70;;;;;;5015507;28;20192;-71
2022/04/29 04:09:33;;;;;;;4.70;4.30;;;18.60;44.70;;;;;;5032284;28;20547;-71
2022/04/29 04:12:06;;;;;;;4.68;4.28;;;18.60;44.70;;;;;;5031904;28;20603;-73
2022/04/29 04:14:59;;;;;;;4.50;4.13;;;18.60;44.60;;;;;;5016456;28;20578;-71
2022/04/29 04:17:27;;;;;;;4.55;4.15;;;18.60;44.70;;;;;;5031877;28;20199;-71
2022/04/29 04:19:54;;;;;;;4.63;4.22;;;18.60;45.30;;;;;;5031859;28;20197;-71
2022/04/29 04:22:21;;;;;;;4.30;4.00;;;18.60;44.60;;;;;;5031850;28;20248;-71
2022/04/29 04:24:50;;;;;;;4.32;3.95;;;18.70;44.60;;;;;;5015641;28;20204;-71
2022/04/29 04:27:17;;;;;;;4.43;4.03;;;18.80;44.60;;;;;;5015168;28;20560;-72
2022/04/29 04:29:44;;;;;;;4.63;4.22;;;18.70;44.40;;;;;;5032507;28;20552;-71
2022/04/29 04:32:11;;;;;;;4.30;3.90;;;18.80;44.40;;;;;;5015015;28;20228;-72
2022/04/29 04:34:50;;;;;;;4.65;4.15;;;18.80;44.30;;;;;;5031256;28;20201;-71
2022/04/29 04:37:18;;;;;;;4.88;4.47;;;18.90;44.30;;;;;;5015112;28;20689;-71
2022/04/29 04:39:46;;;;;;;4.95;4.45;;;18.90;44.20;;;;;;5031593;28;20219;-71
2022/04/29 04:42:18;;;;;;;4.53;4.10;;;18.90;44.60;;;;;;5016452;28;20652;-71
2022/04/29 04:45:03;;;;;;;4.60;4.20;;;18.90;44.30;;;;;;4975673;28;20229;-70
2022/04/29 04:47:36;;;;;;;5.00;4.50;;;18.90;44.20;;;;;;5128247;23;20244;-71
2022/04/29 04:50:21;;;;;;;5.63;4.38;;;18.90;44.30;;;;;;5016044;28;20212;-70
2022/04/29 04:52:49;;;;;;;4.57;4.18;;;18.90;44.60;;;;;;5014687;28;20221;-70
2022/04/29 04:55:16;;;;;;;4.88;3.97;;;18.90;44.70;;;;;;4998082;28;20193;-70
2022/04/29 04:57:45;;;;;;;4.50;4.10;;;19.00;45.00;;;;;;4998191;28;20193;-70
2022/04/29 05:00:14;;;;;;;4.45;4.05;;;19.00;45.00;;;;;;4998416;28;20743;-70
2022/04/29 05:03:19;;;;;;;4.35;3.88;;;19.00;44.90;;;;;;4974711;28;20214;-70
2022/04/29 05:06:09;;;;;;;4.47;4.07;;;19.10;44.80;;;;;;4974516;28;20202;-71
2022/04/29 05:08:37;;;;;;;4.18;3.78;;;19.10;44.70;;;;;;4984038;28;20224;-70
2022/04/29 05:11:04;;;;;;;4.25;3.80;;;19.10;45.00;;;;;;4997949;28;20239;-71
2022/04/29 05:13:33;;;;;;;4.50;4.10;;;19.20;44.80;;;;;;4998259;28;20192;-70
2022/04/29 05:16:00;;;;;;;4.07;3.72;;;19.20;45.20;;;;;;4998041;28;20196;-70
2022/04/29 05:18:34;;;;;;;4.45;4.05;;;19.30;44.60;;;;;;4998410;28;20202;-72
2022/04/29 05:21:05;;;;;;;4.53;4.15;;;19.40;44.60;;;;;;4997887;28;20231;-70
2022/04/29 05:23:34;;;;;;;4.88;4.15;;;19.50;44.80;;;;;;4997871;28;20556;-71
2022/04/29 05:26:24;;;;;;;4.60;4.20;;;19.50;44.50;;;;;;5015089;28;20243;-71
2022/04/29 05:29:12;;;;;;;4.55;4.10;;;19.60;44.40;;;;;;5013841;28;20287;-71
2022/04/29 05:31:58;;;;;;;4.25;3.90;;;19.60;44.30;;;;;;5015369;28;20347;-71
2022/04/29 05:34:48;;;;;;;4.20;3.80;;;19.60;44.10;;;;;;5005267;28;20264;-71
2022/04/29 05:37:40;;;;;;;4.00;3.70;;;19.70;44.00;;;;;;5005224;28;20201;-70
2022/04/29 05:42:58;;;;;;;4.65;4.22;;;19.80;43.80;;;;;;4997739;28;20204;-70
2022/04/29 05:45:26;;;;;;;4.35;4.00;;;19.80;43.70;;;;;;5013672;28;20212;-70
2022/04/29 05:47:54;;;;;;;4.25;3.92;;;19.80;43.70;;;;;;4996728;28;20204;-71
2022/04/29 05:50:21;;;;;;;4.28;3.88;;;19.80;43.60;;;;;;4997481;28;20237;-70
2022/04/29 05:52:48;;;;;;;4.28;3.97;;;19.90;44.20;;;;;;5024256;23;20232;-58
2022/04/29 05:55:15;;;;;;;4.50;4.20;;;19.90;43.40;;;;;;4993759;28;20288;-59
2022/04/29 05:57:44;;;;;;;4.32;3.92;;;19.90;43.30;;;;;;4996027;28;20246;-58
2022/04/29 06:00:13;;;;;;;4.30;4.00;;;19.90;43.30;;;;;;5011106;28;20198;-58
2022/04/29 06:02:44;;;;;;;3.90;3.60;;;19.90;43.30;;;;;;4995397;28;20210;-59
2022/04/29 06:05:12;;;;;;;4.30;3.90;;;20.00;43.20;;;;;;4993605;28;20212;-59
2022/04/29 06:07:42;;;;;;;4.70;4.30;;;20.00;43.20;;;;;;5009867;28;20312;-58
2022/04/29 06:10:11;;;;;;;4.20;3.90;;;20.10;43.10;;;;;;4993443;28;20236;-58
2022/04/29 06:12:41;;;;;;;3.90;3.60;;;20.20;42.90;;;;;;5009635;28;20237;-58
2022/04/29 06:15:14;;;;;;;4.32;3.92;;;20.30;42.80;;;;;;4993381;28;20186;-58
2022/04/29 06:18:01;;;;;;;3.60;3.40;;;20.40;42.70;;;;;;4994542;28;20351;-58
2022/04/29 06:20:47;;;;;;;4.32;3.95;;;20.60;42.60;;;;;;4994787;28;20224;-58
2022/04/29 06:23:17;;;;;;;4.97;4.30;;;20.80;42.30;;;;;;4994748;28;20208;-58
2022/04/29 06:25:44;;;;;;;5.00;3.72;;;21.00;42.00;;;;;;5009714;28;20205;-58
2022/04/29 06:28:14;;;;;;;4.13;3.78;;;21.20;41.80;;;;;;4993575;28;20217;-58
2022/04/29 06:30:42;;;;;;;4.50;4.10;;;21.40;41.20;;;;;;5009712;28;20579;-58
2022/04/29 06:33:31;;;;;;;4.55;4.15;;;21.50;40.80;;;;;;5013650;23;20283;-72
2022/04/29 06:35:59;;;;;;;4.15;3.85;;;21.70;40.40;;;;;;5010698;28;20209;-71
2022/04/29 06:38:26;;;;;;;5.25;4.75;;;21.80;40.20;;;;;;4993630;28;20190;-71
2022/04/29 06:40:56;;;;;;;4.85;4.10;;;21.90;40.00;;;;;;4995351;28;20284;-71
2022/04/29 06:43:28;;;;;;;4.57;4.18;;;21.90;39.90;;;;;;5010270;28;20587;-71
2022/04/29 06:46:15;;;;;;;4.22;3.83;;;22.00;39.90;;;;;;5014120;28;20665;-71
2022/04/29 06:49:02;;;;;;;6.28;4.55;;;22.10;39.70;;;;;;5014356;28;20223;-71
2022/04/29 06:51:48;;;;;;;4.95;4.43;;;22.20;39.50;;;;;;5014210;28;20652;-72
2022/04/29 06:54:20;;;;;;;4.30;4.00;;;22.40;39.40;;;;;;5012941;28;20201;-71
2022/04/29 06:56:52;;;;;;;4.85;4.43;;;22.50;39.10;;;;;;5029602;28;20203;-71
2022/04/29 06:59:20;;;;;;;4.97;4.32;;;22.60;38.70;;;;;;5029168;28;20204;-71
2022/04/29 07:01:47;;;;;;;4.55;4.10;;;22.70;38.80;;;;;;5029177;28;20212;-71
2022/04/29 07:04:16;;;;;;;3.83;3.53;;;22.80;38.80;;;;;;5012631;28;20206;-71
2022/04/29 07:06:43;;;;;;;4.22;3.90;;;22.90;38.60;;;;;;5029023;28;20291;-71
2022/04/29 07:09:10;;;;;;;4.28;3.88;;;23.00;38.40;;;;;;5029077;28;20201;-71
2022/04/29 07:11:56;;;;;;;4.57;4.18;;;23.10;38.20;;;;;;5013649;28;20728;-71
2022/04/29 07:14:43;;;;;;;4.00;3.60;;;23.20;38.10;;;;;;5013427;28;20200;-71
2022/04/29 07:17:12;;;;;;;4.05;3.63;;;23.20;37.80;;;;;;5012453;28;20704;-71
2022/04/29 07:19:50;;;;;;;4.28;3.90;;;23.30;37.70;;;;;;5029038;28;20201;-71
2022/04/29 07:22:18;;;;;;;4.22;3.85;;;23.40;37.70;;;;;;5028879;28;20299;-72
2022/04/29 07:24:47;;;;;;;4.38;3.97;;;23.40;38.20;;;;;;5029106;28;20200;-71
2022/04/29 07:27:14;;;;;;;3.88;3.58;;;23.40;37.50;;;;;;5029005;28;20197;-71
2022/04/29 07:29:42;;;;;;;4.05;3.40;;;23.40;37.50;;;;;;5029549;28;20208;-71
2022/04/29 07:32:27;;;;;;;3.95;3.35;;;23.40;37.50;;;;;;5012414;28;20251;-71
2022/04/29 07:43:38;;;;;;;4.25;3.78;;;23.40;37.50;;;;;;5012733;28;20212;-71
2022/04/29 07:46:06;;;;;;;3.83;3.53;;;23.40;37.50;;;;;;5028774;28;20284;-71
2022/04/29 07:48:52;;;;;;;3.42;3.13;;;23.40;37.50;;;;;;5028705;28;20573;-71
2022/04/29 07:51:21;;;;;;;3.70;3.40;;;23.40;37.50;;;;;;5012136;28;20220;-71
2022/04/29 07:53:49;;;;;;;3.30;3.03;;;23.50;38.10;;;;;;5028508;28;20634;-71
2022/04/29 07:56:16;;;;;;;3.17;2.97;;;23.50;37.40;;;;;;5012101;28;20629;-71
2022/04/29 07:58:45;;;;;;;3.30;3.10;;;23.50;37.30;;;;;;5028605;28;20200;-71
2022/04/29 08:01:12;;;;;;;3.38;3.08;;;23.50;37.20;;;;;;5012288;28;20204;-71
2022/04/29 08:03:43;;;;;;;3.75;3.13;;;23.60;37.10;;;;;;5028572;28;20244;-71
2022/04/29 08:06:14;;;;;;;3.45;3.15;;;23.70;37.10;;;;;;5012303;28;20695;-71
2022/04/29 08:08:42;;;;;;;3.33;3.03;;;23.70;36.90;;;;;;5028723;28;20228;-71
2022/04/29 08:11:09;;;;;;;3.30;3.10;;;23.70;36.90;;;;;;5031220;28;20199;-72
2022/04/29 08:13:57;;;;;;;3.60;3.30;;;23.70;36.90;;;;;;5016641;28;20201;-71
2022/04/29 08:16:46;;;;;;;3.45;3.15;;;23.70;37.00;;;;;;5017218;28;20208;-71
2022/04/29 08:19:25;;;;;;;3.47;3.10;;;23.60;37.00;;;;;;5032852;28;20188;-71
2022/04/29 08:22:09;;;;;;;3.33;3.13;;;23.60;37.00;;;;;;5032542;28;20590;-72
2022/04/29 08:24:37;;;;;;;3.70;3.40;;;23.60;37.20;;;;;;5015519;28;20243;-71
2022/04/29 08:27:05;;;;;;;3.63;3.15;;;23.50;37.20;;;;;;5032432;28;20291;-71
2022/04/29 08:29:33;;;;;;;3.30;3.00;;;23.50;37.20;;;;;;5017006;28;20224;-71
2022/04/29 08:32:00;;;;;;;4.13;2.80;;;23.60;37.20;;;;;;5031859;28;20301;-72
2022/04/29 08:34:27;;;;;;;3.67;2.97;;;23.70;37.00;;;;;;5032867;28;20223;-71
2022/04/29 08:36:55;;;;;;;2.85;2.65;;;23.80;36.90;;;;;;5035898;28;20209;-72
2022/04/29 08:39:22;;;;;;;3.00;2.80;;;24.00;36.80;;;;;;5043838;28;20193;-71
2022/04/29 08:41:51;;;;;;;3.08;2.78;;;24.20;36.50;;;;;;5015515;28;20213;-71
2022/04/29 08:44:19;;;;;;;3.17;2.92;;;24.30;36.20;;;;;;5032358;28;20567;-71
2022/04/29 08:46:53;;;;;;;3.33;3.03;;;24.50;36.00;;;;;;5031770;28;20673;-71
2022/04/29 08:49:39;;;;;;;3.33;3.03;;;24.70;35.70;;;;;;5016504;28;20667;-71
2022/04/29 08:52:06;;;;;;;3.30;3.00;;;24.90;35.50;;;;;;5031154;28;20232;-71
2022/04/29 09:00:06;;;;;;;2.88;2.58;;;25.20;34.80;;;;;;5016173;28;20239;-71
2022/04/29 09:02:39;;;;;;;3.55;3.28;;;25.30;34.60;;;;;;5014873;28;20300;-71
2022/04/29 09:05:09;;;;;;;3.17;2.88;;;25.40;34.50;;;;;;5031473;28;20200;-71
2022/04/29 09:07:56;;;;;;;3.10;2.90;;;25.40;34.40;;;;;;5014609;28;20201;-71
2022/04/29 09:10:23;;;;;;;2.88;2.63;;;25.40;34.40;;;;;;5015658;28;20607;-71
2022/04/29 09:12:52;;;;;;;2.85;2.65;;;25.50;34.40;;;;;;5014279;28;20603;-71
2022/04/29 09:15:20;;;;;;;3.03;2.72;;;25.50;34.30;;;;;;5015646;28;20188;-71
2022/04/29 09:17:48;;;;;;;3.05;2.75;;;25.50;34.30;;;;;;5015534;28;20653;-71
2022/04/29 09:20:16;;;;;;;3.13;2.92;;;25.50;34.30;;;;;;5015863;28;20277;-71
2022/04/29 09:22:47;;;;;;;3.00;2.80;;;25.50;34.20;;;;;;5014358;28;20213;-71
2022/04/29 09:25:35;;;;;;;3.15;2.92;;;25.50;34.20;;;;;;5015377;28;20688;-71
2022/04/29 09:28:33;;;;;;;3.38;3.05;;;25.60;34.20;;;;;;5014792;28;20196;-71
2022/04/29 09:31:18;;;;;;;3.15;2.75;;;25.60;34.20;;;;;;5014162;28;20196;-71
2022/04/29 09:34:17;;;;;;;3.30;3.00;;;25.60;34.10;;;;;;5015273;28;20220;-71
2022/04/29 09:36:51;;;;;;;2.90;2.70;;;25.60;34.00;;;;;;5030527;28;20284;-71
2022/04/29 09:39:30;;;;;;;2.80;2.60;;;25.60;34.10;;;;;;5030714;28;20220;-71
2022/04/29 09:41:57;;;;;;;2.90;2.70;;;25.60;34.10;;;;;;5030350;28;20216;-71
2022/04/29 09:44:29;;;;;;;2.83;2.63;;;25.60;34.20;;;;;;5013771;28;20204;-71
2022/04/29 09:46:57;;;;;;;2.90;2.70;;;25.60;34.20;;;;;;5013875;28;20209;-71
2022/04/29 09:49:27;;;;;;;2.97;2.78;;;25.60;34.10;;;;;;5013817;28;20663;-71
2022/04/29 09:51:54;;;;;;;2.95;2.75;;;25.60;34.10;;;;;;5013466;28;20217;-71
2022/04/29 09:54:23;;;;;;;3.05;2.85;;;25.60;34.00;;;;;;5013800;28;20201;-71
2022/04/29 09:57:09;;;;;;;3.25;2.95;;;25.60;34.00;;;;;;5013664;28;20255;-71
2022/04/29 09:59:38;;;;;;;3.08;2.88;;;25.60;34.00;;;;;;5015381;28;20212;-71
2022/04/29 10:02:06;;;;;;;2.60;2.40;;;25.60;34.00;;;;;;5013601;28;20224;-71
2022/04/29 10:04:35;;;;;;;2.65;2.45;;;25.60;34.10;;;;;;5029845;28;20613;-70
2022/04/29 10:07:04;;;;;;;2.60;2.40;;;25.50;34.30;;;;;;5013551;28;20243;-71
2022/04/29 10:09:33;;;;;;;2.58;2.42;;;25.50;34.30;;;;;;5013308;28;20231;-72
2022/04/29 10:12:02;;;;;;;2.90;2.70;;;25.40;34.50;;;;;;5013219;28;20240;-71
2022/04/29 10:14:30;;;;;;;3.00;2.80;;;25.30;34.50;;;;;;5013408;28;20595;-71
2022/04/29 10:23:05;;;;;;;2.88;2.50;;;25.10;34.90;;;;;;5013119;28;20209;-71
2022/04/29 10:25:32;;;;;;;2.65;2.45;;;25.10;35.00;;;;;;5014368;28;20272;-71
2022/04/29 10:28:00;;;;;;;2.88;2.67;;;25.00;35.00;;;;;;5014287;28;20203;-71
2022/04/29 10:30:27;;;;;;;2.72;2.53;;;25.00;35.10;;;;;;5029412;28;20208;-71
2022/04/29 10:33:04;;;;;;;2.60;2.40;;;25.00;35.20;;;;;;5013525;28;20689;-71
2022/04/29 10:35:49;;;;;;;2.58;2.38;;;25.00;35.20;;;;;;5012917;28;20283;-71
2022/04/29 10:38:16;;;;;;;2.78;2.50;;;25.00;35.10;;;;;;5014151;28;20192;-71
2022/04/29 10:40:43;;;;;;;2.63;2.45;;;25.10;35.70;;;;;;5014331;28;20204;-71
2022/04/29 10:43:13;;;;;;;2.80;2.60;;;25.10;34.90;;;;;;5012841;28;20594;-71
2022/04/29 10:46:10;;;;;;;2.63;2.42;;;25.10;34.90;;;;;;5014391;28;20173;-71
2022/04/29 10:48:49;;;;;;;2.75;2.53;;;25.10;34.90;;;;;;5029322;28;20215;-71
2022/04/29 10:51:49;;;;;;;2.65;2.53;;;25.10;34.90;;;;;;5014662;28;20231;-72
2022/04/29 10:54:45;;;;;;;2.88;2.67;;;25.10;34.90;;;;;;5012722;28;20584;-71
2022/04/29 10:57:37;;;;;;;2.40;2.30;;;25.10;34.90;;;;;;5014127;28;20188;-71
2022/04/29 11:00:10;;;;;;;2.90;2.70;;;25.10;34.80;;;;;;5029177;28;20223;-71
2022/04/29 11:02:40;;;;;;;3.03;2.30;;;25.10;34.80;;;;;;5012469;28;20213;-71
2022/04/29 11:05:09;;;;;;;2.92;2.72;;;25.10;35.40;;;;;;5013750;28;20239;-71
2022/04/29 11:07:38;;;;;;;2.78;2.58;;;25.00;34.90;;;;;;5029197;28;20200;-71
2022/04/29 11:10:11;;;;;;;3.17;2.60;;;25.00;35.00;;;;;;5028930;28;20201;-71
2022/04/29 11:12:39;;;;;;;2.50;2.30;;;25.00;35.00;;;;;;5012782;28;20611;-71
2022/04/29 11:15:39;;;;;;;2.67;2.13;;;25.00;35.10;;;;;;5014492;28;20188;-72
2022/04/29 11:18:14;;;;;;;2.55;2.35;;;25.00;35.10;;;;;;5028959;28;20193;-72
2022/04/29 11:20:43;;;;;;;2.47;2.33;;;25.00;35.10;;;;;;5012524;28;20209;-71
2022/04/29 11:25:57;;;;;;;2.42;2.13;;;25.00;35.20;;;;;;5012356;28;20191;-71
2022/04/29 11:29:00;;;;;;;2.42;2.28;;;24.90;35.10;;;;;;5003575;28;20189;-71
2022/04/29 11:31:46;;;;;;;3.30;2.50;;;25.00;35.30;;;;;;5013816;28;20307;-71
2022/04/29 11:34:14;;;;;;;2.60;2.40;;;24.90;35.20;;;;;;5028664;28;20212;-71
2022/04/29 11:36:43;;;;;;;2.28;2.17;;;24.90;35.20;;;;;;5013692;28;20243;-71
2022/04/29 11:39:14;;;;;;;2.58;2.38;;;24.90;35.30;;;;;;5013591;28;20203;-71
2022/04/29 11:41:52;;;;;;;2.67;2.50;;;24.90;35.30;;;;;;5028825;28;20188;-71
2022/04/29 11:44:21;;;;;;;2.63;2.42;;;24.80;35.30;;;;;;5028884;28;20279;-71
2022/04/29 11:46:51;;;;;;;2.40;2.20;;;24.90;35.40;;;;;;5016713;28;20598;-71
2022/04/29 11:49:28;;;;;;;2.75;2.55;;;24.90;35.50;;;;;;5032545;28;20197;-71
2022/04/29 11:51:57;;;;;;;2.22;2.03;;;24.80;35.40;;;;;;5015847;28;20598;-71
2022/04/29 11:54:24;;;;;;;2.30;2.20;;;24.80;35.50;;;;;;5015767;28;20219;-71
2022/04/29 11:56:51;;;;;;;2.38;2.22;;;24.80;35.50;;;;;;5015767;28;20201;-71
2022/04/29 11:59:19;;;;;;;2.55;2.35;;;24.80;35.50;;;;;;5016981;28;20291;-71
2022/04/29 12:01:46;;;;;;;2.47;2.28;;;24.80;35.60;;;;;;5032113;28;20227;-71
2022/04/29 12:04:13;;;;;;;2.65;2.45;;;24.80;35.60;;;;;;5032282;28;20197;-71
2022/04/29 12:06:57;;;;;;;2.33;2.22;;;24.70;35.50;;;;;;5032056;28;20197;-71
2022/04/29 12:09:31;;;;;;;2.70;2.50;;;24.70;35.60;;;;;;5015633;28;20195;-71
2022/04/29 12:11:59;;;;;;;2.50;2.30;;;24.80;35.70;;;;;;5015474;28;20216;-71
2022/04/29 12:14:26;;;;;;;2.20;2.10;;;24.70;35.70;;;;;;5032019;28;20212;-71
2022/04/29 12:16:53;;;;;;;2.78;2.58;;;24.70;35.70;;;;;;5015401;28;20223;-71
2022/04/29 12:19:21;;;;;;;2.10;2.00;;;24.70;35.70;;;;;;5031874;28;20197;-71
2022/04/29 12:21:55;;;;;;;2.72;2.40;;;24.70;35.70;;;;;;5015243;28;20282;-71
2022/04/29 12:24:23;;;;;;;2.40;2.20;;;24.70;35.70;;;;;;5031996;28;20196;-71
2022/04/29 12:27:05;;;;;;;2.25;2.15;;;24.70;35.80;;;;;;5016350;28;20224;-71
2022/04/29 12:29:33;;;;;;;2.47;2.28;;;24.70;35.80;;;;;;5015471;28;20204;-72
2022/04/29 12:35:06;;;;;;;2.50;2.30;;;24.60;35.70;;;;;;4976563;28;20209;-67
2022/04/29 12:37:33;;;;;;;2.55;2.35;;;24.60;35.80;;;;;;4992281;28;20210;-67
2022/04/29 12:40:07;;;;;;;2.40;2.30;;;24.60;35.80;;;;;;4977320;28;20198;-67
2022/04/29 12:42:34;;;;;;;2.53;2.33;;;24.60;35.80;;;;;;4992228;28;20273;-67
2022/04/29 12:45:09;;;;;;;2.15;2.05;;;24.60;35.80;;;;;;4992306;28;20310;-66
2022/04/29 12:47:49;;;;;;;2.20;2.10;;;24.50;35.90;;;;;;4977598;28;20194;-67
2022/04/29 12:50:20;;;;;;;2.20;2.10;;;24.50;35.90;;;;;;4991974;28;20580;-67
2022/04/29 12:52:56;;;;;;;2.40;2.20;;;24.50;35.90;;;;;;4992213;28;20294;-67
2022/04/29 12:55:25;;;;;;;2.25;2.15;;;24.50;35.90;;;;;;4991608;28;20201;-67
2022/04/29 12:57:53;;;;;;;2.70;2.50;;;24.50;35.90;;;;;;4992127;28;20198;-67
2022/04/29 13:00:25;;;;;;;2.45;2.33;;;24.60;36.00;;;;;;4991727;28;20265;-67
2022/04/29 13:03:03;;;;;;;2.38;2.20;;;24.60;36.00;;;;;;4991739;28;20630;-67
2022/04/29 13:05:30;;;;;;;2.28;2.17;;;24.60;36.10;;;;;;4991765;28;20281;-67
2022/04/29 13:07:57;;;;;;;2.47;2.28;;;24.50;36.60;;;;;;4977099;28;20194;-67
2022/04/29 13:10:25;;;;;;;2.50;2.30;;;24.50;35.90;;;;;;4976912;28;20195;-67
2022/04/29 13:12:53;;;;;;;2.35;2.25;;;24.50;36.00;;;;;;4991562;28;20325;-67
2022/04/29 13:15:27;;;;;;;2.30;2.20;;;24.50;36.10;;;;;;4976710;28;20240;-67
2022/04/29 13:17:58;;;;;;;2.50;2.30;;;24.50;36.20;;;;;;4976497;28;20194;-67
2022/04/29 13:20:26;;;;;;;2.58;2.38;;;24.50;36.20;;;;;;4991483;28;20208;-67
2022/04/29 13:22:53;;;;;;;2.47;2.38;;;24.50;36.20;;;;;;4992295;28;20217;-67
2022/04/29 13:25:22;;;;;;;2.20;2.10;;;24.50;36.20;;;;;;4992058;28;20202;-67
2022/04/29 13:27:52;;;;;;;2.38;2.17;;;24.50;36.30;;;;;;4991322;28;20559;-67
2022/04/29 13:30:19;;;;;;;2.20;2.10;;;24.40;36.20;;;;;;4991296;28;20241;-67
2022/04/29 13:32:46;;;;;;;2.03;1.92;;;24.40;36.20;;;;;;4990971;28;20232;-66
2022/04/29 13:35:15;;;;;;;2.42;2.30;;;24.40;36.40;;;;;;4991329;28;20202;-66
2022/04/29 13:37:42;;;;;;;2.40;2.25;;;24.40;36.40;;;;;;4976243;28;20660;-67
2022/04/29 13:40:10;;;;;;;2.40;2.30;;;24.40;36.40;;;;;;4991124;28;20285;-67
2022/04/29 13:42:37;;;;;;;2.30;2.10;;;24.30;36.40;;;;;;4976159;28;20218;-68
2022/04/29 13:45:10;;;;;;;2.53;2.33;;;24.30;37.10;;;;;;4991103;28;20202;-67
2022/04/29 13:47:37;;;;;;;2.25;2.15;;;24.30;36.60;;;;;;4991104;28;20190;-67